sensor_id;sensor_type;location;lat;lon;timestamp;temperature;humidity
12746;DHT22;6437;53.686;10.030;2023-06-22T00:01:45;19.70;99.90
12746;DHT22;6437;53.686;10.030;2023-06-22T00:03:47;19.60;99.90
12746;DHT22;6437;53.686;10.030;2023-06-22T00:05:49;19.50;99.90
12746;DHT22;6437;53.686;10.030;2023-06-22T00:07:50;16.60;99.90
12746;DHT22;6437;53.686;10.030;2023-06-22T00:09:52;19.50;99.90
12746;DHT22;6437;53.686;10.030;2023-06-22T00:11:53;19.80;99.90
12746;DHT22;6437;53.686;10.030;2023-06-22T00:13:55;19.60;99.90
12746;DHT22;6437;53.686;10.030;2023-06-22T00:15:58;19.60;99.90
12746;DHT22;6437;53.686;10.030;2023-06-22T00:18:00;19.60;99.90
12746;DHT22;6437;53.686;10.030;2023-06-22T00:20:02;19.60;99.90
12746;DHT22;6437;53.686;10.030;2023-06-22T00:22:07;19.50;99.90
12746;DHT22;6437;53.686;10.030;2023-06-22T00:24:09;19.50;99.90
12746;DHT22;6437;53.686;10.030;2023-06-22T00:26:10;19.50;99.90
12746;DHT22;6437;53.686;10.030;2023-06-22T00:28:12;19.40;99.90
12746;DHT22;6437;53.686;10.030;2023-06-22T00:30:14;23.20;99.90
12746;DHT22;6437;53.686;10.030;2023-06-22T00:32:17;19.40;99.90
12746;DHT22;6437;53.686;10.030;2023-06-22T00:34:19;19.30;99.90
12746;DHT22;6437;53.686;10.030;2023-06-22T00:36:21;19.30;99.90
12746;DHT22;6437;53.686;10.030;2023-06-22T00:38:25;19.20;99.90
12746;DHT22;6437;53.686;10.030;2023-06-22T00:40:26;18.50;99.90
12746;DHT22;6437;53.686;10.030;2023-06-22T00:42:28;19.30;99.90
12746;DHT22;6437;53.686;10.030;2023-06-22T00:44:29;19.30;99.90
12746;DHT22;6437;53.686;10.030;2023-06-22T00:46:31;19.40;99.90
12746;DHT22;6437;53.686;10.030;2023-06-22T00:48:34;19.30;99.90
12746;DHT22;6437;53.686;10.030;2023-06-22T00:50:37;19.30;99.90
12746;DHT22;6437;53.686;10.030;2023-06-22T00:52:38;19.20;99.90
12746;DHT22;6437;53.686;10.030;2023-06-22T00:54:44;23.10;99.90
12746;DHT22;6437;53.686;10.030;2023-06-22T00:56:46;19.10;99.90
12746;DHT22;6437;53.686;10.030;2023-06-22T00:58:48;18.90;99.90
12746;DHT22;6437;53.686;10.030;2023-06-22T01:00:53;21.70;99.90
12746;DHT22;6437;53.686;10.030;2023-06-22T01:02:55;19.10;99.90
12746;DHT22;6437;53.686;10.030;2023-06-22T01:04:58;19.10;99.90
12746;DHT22;6437;53.686;10.030;2023-06-22T01:07:00;19.20;99.90
12746;DHT22;6437;53.686;10.030;2023-06-22T01:09:06;21.70;99.90
12746;DHT22;6437;53.686;10.030;2023-06-22T01:11:13;19.10;99.90
12746;DHT22;6437;53.686;10.030;2023-06-22T01:13:19;20.60;99.90
12746;DHT22;6437;53.686;10.030;2023-06-22T01:15:23;19.00;99.90
12746;DHT22;6437;53.686;10.030;2023-06-22T01:17:26;19.00;99.90
12746;DHT22;6437;53.686;10.030;2023-06-22T01:19:35;16.20;99.90
12746;DHT22;6437;53.686;10.030;2023-06-22T01:21:38;19.00;99.90
12746;DHT22;6437;53.686;10.030;2023-06-22T01:23:44;19.00;99.90
12746;DHT22;6437;53.686;10.030;2023-06-22T01:25:51;19.00;99.90
12746;DHT22;6437;53.686;10.030;2023-06-22T01:27:56;19.00;99.90
12746;DHT22;6437;53.686;10.030;2023-06-22T01:30:02;19.00;99.90
12746;DHT22;6437;53.686;10.030;2023-06-22T01:32:05;19.00;99.90
12746;DHT22;6437;53.686;10.030;2023-06-22T01:34:08;19.00;99.90
12746;DHT22;6437;53.686;10.030;2023-06-22T01:36:10;19.00;99.90
12746;DHT22;6437;53.686;10.030;2023-06-22T01:38:12;19.00;99.90
12746;DHT22;6437;53.686;10.030;2023-06-22T01:40:14;19.00;99.90
12746;DHT22;6437;53.686;10.030;2023-06-22T01:42:16;17.90;99.90
12746;DHT22;6437;53.686;10.030;2023-06-22T01:44:18;18.50;99.90
12746;DHT22;6437;53.686;10.030;2023-06-22T01:46:21;19.00;99.90
12746;DHT22;6437;53.686;10.030;2023-06-22T01:48:23;19.00;99.90
12746;DHT22;6437;53.686;10.030;2023-06-22T01:50:26;19.00;99.90
12746;DHT22;6437;53.686;10.030;2023-06-22T01:52:27;18.90;99.90
12746;DHT22;6437;53.686;10.030;2023-06-22T01:54:29;18.90;99.90
12746;DHT22;6437;53.686;10.030;2023-06-22T01:56:31;16.70;99.90
12746;DHT22;6437;53.686;10.030;2023-06-22T01:58:33;18.90;99.90
12746;DHT22;6437;53.686;10.030;2023-06-22T02:00:36;18.90;99.90
12746;DHT22;6437;53.686;10.030;2023-06-22T02:02:41;18.90;99.90
12746;DHT22;6437;53.686;10.030;2023-06-22T02:04:46;19.60;99.90
12746;DHT22;6437;53.686;10.030;2023-06-22T02:06:48;18.90;99.90
12746;DHT22;6437;53.686;10.030;2023-06-22T02:08:54;22.70;99.90
12746;DHT22;6437;53.686;10.030;2023-06-22T02:10:57;19.00;99.90
12746;DHT22;6437;53.686;10.030;2023-06-22T02:12:59;18.90;99.90
12746;DHT22;6437;53.686;10.030;2023-06-22T02:15:02;18.90;99.90
12746;DHT22;6437;53.686;10.030;2023-06-22T02:17:03;15.20;99.90
12746;DHT22;6437;53.686;10.030;2023-06-22T02:19:09;18.80;99.90
12746;DHT22;6437;53.686;10.030;2023-06-22T02:21:11;18.90;99.90
12746;DHT22;6437;53.686;10.030;2023-06-22T02:23:12;18.90;99.90
12746;DHT22;6437;53.686;10.030;2023-06-22T02:25:14;18.90;99.90
12746;DHT22;6437;53.686;10.030;2023-06-22T02:27:16;18.90;99.90
12746;DHT22;6437;53.686;10.030;2023-06-22T02:29:17;18.90;99.90
12746;DHT22;6437;53.686;10.030;2023-06-22T02:31:19;18.80;99.90
12746;DHT22;6437;53.686;10.030;2023-06-22T02:33:21;18.80;99.90
12746;DHT22;6437;53.686;10.030;2023-06-22T02:35:24;18.70;99.90
12746;DHT22;6437;53.686;10.030;2023-06-22T02:37:25;18.70;99.90
12746;DHT22;6437;53.686;10.030;2023-06-22T02:39:30;17.30;99.90
12746;DHT22;6437;53.686;10.030;2023-06-22T02:41:31;18.70;99.90
12746;DHT22;6437;53.686;10.030;2023-06-22T02:43:33;18.70;99.90
12746;DHT22;6437;53.686;10.030;2023-06-22T02:45:34;18.70;99.90
12746;DHT22;6437;53.686;10.030;2023-06-22T02:47:36;18.70;99.90
12746;DHT22;6437;53.686;10.030;2023-06-22T02:49:38;18.60;99.90
12746;DHT22;6437;53.686;10.030;2023-06-22T02:51:42;18.60;99.90
12746;DHT22;6437;53.686;10.030;2023-06-22T02:53:44;18.60;99.90
12746;DHT22;6437;53.686;10.030;2023-06-22T02:55:47;18.30;99.90
12746;DHT22;6437;53.686;10.030;2023-06-22T02:57:49;18.60;99.90
12746;DHT22;6437;53.686;10.030;2023-06-22T02:59:53;18.50;99.90
12746;DHT22;6437;53.686;10.030;2023-06-22T03:01:55;18.50;99.90
12746;DHT22;6437;53.686;10.030;2023-06-22T03:03:57;18.50;99.90
12746;DHT22;6437;53.686;10.030;2023-06-22T03:05:58;18.40;99.90
12746;DHT22;6437;53.686;10.030;2023-06-22T03:08:03;19.10;99.90
12746;DHT22;6437;53.686;10.030;2023-06-22T03:10:04;20.00;99.90
12746;DHT22;6437;53.686;10.030;2023-06-22T03:12:07;18.40;99.90
12746;DHT22;6437;53.686;10.030;2023-06-22T03:14:08;18.40;99.90
12746;DHT22;6437;53.686;10.030;2023-06-22T03:16:10;18.30;99.90
12746;DHT22;6437;53.686;10.030;2023-06-22T03:18:11;18.30;99.90
12746;DHT22;6437;53.686;10.030;2023-06-22T03:20:13;18.40;99.90
12746;DHT22;6437;53.686;10.030;2023-06-22T03:22:14;18.40;99.90
12746;DHT22;6437;53.686;10.030;2023-06-22T03:24:17;18.30;99.90
12746;DHT22;6437;53.686;10.030;2023-06-22T03:26:20;18.30;99.90
12746;DHT22;6437;53.686;10.030;2023-06-22T03:28:23;20.00;99.90
12746;DHT22;6437;53.686;10.030;2023-06-22T03:30:25;19.70;99.90
12746;DHT22;6437;53.686;10.030;2023-06-22T03:32:26;21.70;99.90
12746;DHT22;6437;53.686;10.030;2023-06-22T03:34:28;18.30;99.90
12746;DHT22;6437;53.686;10.030;2023-06-22T03:36:34;18.30;99.90
12746;DHT22;6437;53.686;10.030;2023-06-22T03:38:36;18.20;99.90
12746;DHT22;6437;53.686;10.030;2023-06-22T03:40:39;18.20;99.90
12746;DHT22;6437;53.686;10.030;2023-06-22T03:42:40;20.00;99.90
12746;DHT22;6437;53.686;10.030;2023-06-22T03:44:42;18.20;99.90
12746;DHT22;6437;53.686;10.030;2023-06-22T03:46:43;18.20;99.90
12746;DHT22;6437;53.686;10.030;2023-06-22T03:48:45;18.20;99.90
12746;DHT22;6437;53.686;10.030;2023-06-22T03:50:47;18.10;99.90
12746;DHT22;6437;53.686;10.030;2023-06-22T03:52:49;21.50;99.90
12746;DHT22;6437;53.686;10.030;2023-06-22T03:54:51;21.20;99.90
12746;DHT22;6437;53.686;10.030;2023-06-22T03:56:54;18.40;99.90
12746;DHT22;6437;53.686;10.030;2023-06-22T03:58:56;18.70;99.90
12746;DHT22;6437;53.686;10.030;2023-06-22T04:00:58;20.50;99.90
12746;DHT22;6437;53.686;10.030;2023-06-22T04:03:00;18.40;99.90
12746;DHT22;6437;53.686;10.030;2023-06-22T04:05:02;18.40;99.90
12746;DHT22;6437;53.686;10.030;2023-06-22T04:07:03;18.50;99.90
12746;DHT22;6437;53.686;10.030;2023-06-22T04:09:05;18.50;99.90
12746;DHT22;6437;53.686;10.030;2023-06-22T04:11:07;18.60;99.90
12746;DHT22;6437;53.686;10.030;2023-06-22T04:13:10;18.70;99.90
12746;DHT22;6437;53.686;10.030;2023-06-22T04:15:11;23.00;99.90
12746;DHT22;6437;53.686;10.030;2023-06-22T04:17:13;18.80;99.90
12746;DHT22;6437;53.686;10.030;2023-06-22T04:19:15;18.90;99.90
12746;DHT22;6437;53.686;10.030;2023-06-22T04:21:18;18.80;99.90
12746;DHT22;6437;53.686;10.030;2023-06-22T04:23:19;18.90;99.90
12746;DHT22;6437;53.686;10.030;2023-06-22T04:25:21;18.90;99.90
12746;DHT22;6437;53.686;10.030;2023-06-22T04:27:23;15.30;99.90
12746;DHT22;6437;53.686;10.030;2023-06-22T04:29:26;18.90;99.90
12746;DHT22;6437;53.686;10.030;2023-06-22T04:31:29;18.90;99.90
12746;DHT22;6437;53.686;10.030;2023-06-22T04:33:32;18.90;99.90
12746;DHT22;6437;53.686;10.030;2023-06-22T04:35:33;19.00;99.90
12746;DHT22;6437;53.686;10.030;2023-06-22T04:37:35;19.00;99.90
12746;DHT22;6437;53.686;10.030;2023-06-22T04:39:37;19.00;99.90
12746;DHT22;6437;53.686;10.030;2023-06-22T04:41:38;19.00;99.90
12746;DHT22;6437;53.686;10.030;2023-06-22T04:43:43;19.10;99.90
12746;DHT22;6437;53.686;10.030;2023-06-22T04:45:46;19.10;99.90
12746;DHT22;6437;53.686;10.030;2023-06-22T04:47:52;19.10;99.90
12746;DHT22;6437;53.686;10.030;2023-06-22T04:49:54;19.10;99.90
12746;DHT22;6437;53.686;10.030;2023-06-22T04:51:56;19.20;99.90
12746;DHT22;6437;53.686;10.030;2023-06-22T04:53:57;19.20;99.90
12746;DHT22;6437;53.686;10.030;2023-06-22T04:56:01;19.20;99.90
12746;DHT22;6437;53.686;10.030;2023-06-22T04:58:04;19.30;99.90
12746;DHT22;6437;53.686;10.030;2023-06-22T05:00:06;19.30;99.90
12746;DHT22;6437;53.686;10.030;2023-06-22T05:02:18;19.30;99.90
12746;DHT22;6437;53.686;10.030;2023-06-22T05:04:21;16.80;99.90
12746;DHT22;6437;53.686;10.030;2023-06-22T05:06:23;19.30;99.90
12746;DHT22;6437;53.686;10.030;2023-06-22T05:08:25;17.50;99.90
12746;DHT22;6437;53.686;10.030;2023-06-22T05:10:29;19.30;99.90
12746;DHT22;6437;53.686;10.030;2023-06-22T05:12:30;23.00;99.90
12746;DHT22;6437;53.686;10.030;2023-06-22T05:14:32;19.30;99.90
12746;DHT22;6437;53.686;10.030;2023-06-22T05:16:33;19.30;99.90
12746;DHT22;6437;53.686;10.030;2023-06-22T05:18:37;19.20;99.90
12746;DHT22;6437;53.686;10.030;2023-06-22T05:20:39;19.20;99.90
12746;DHT22;6437;53.686;10.030;2023-06-22T05:22:40;19.30;99.90
12746;DHT22;6437;53.686;10.030;2023-06-22T05:24:43;19.30;99.90
12746;DHT22;6437;53.686;10.030;2023-06-22T05:26:45;19.30;99.90
12746;DHT22;6437;53.686;10.030;2023-06-22T05:28:46;19.30;99.90
12746;DHT22;6437;53.686;10.030;2023-06-22T05:30:52;19.30;99.90
12746;DHT22;6437;53.686;10.030;2023-06-22T05:32:53;19.40;99.90
12746;DHT22;6437;53.686;10.030;2023-06-22T05:34:56;19.40;99.90
12746;DHT22;6437;53.686;10.030;2023-06-22T05:36:58;19.40;99.90
12746;DHT22;6437;53.686;10.030;2023-06-22T05:39:10;19.40;99.90
12746;DHT22;6437;53.686;10.030;2023-06-22T05:41:12;19.40;99.90
12746;DHT22;6437;53.686;10.030;2023-06-22T05:43:14;19.50;99.90
12746;DHT22;6437;53.686;10.030;2023-06-22T05:45:16;22.50;99.90
12746;DHT22;6437;53.686;10.030;2023-06-22T05:47:17;19.50;99.90
12746;DHT22;6437;53.686;10.030;2023-06-22T05:49:19;16.10;99.90
12746;DHT22;6437;53.686;10.030;2023-06-22T05:51:23;18.30;99.90
12746;DHT22;6437;53.686;10.030;2023-06-22T05:53:25;18.20;99.90
12746;DHT22;6437;53.686;10.030;2023-06-22T05:55:26;19.60;99.90
12746;DHT22;6437;53.686;10.030;2023-06-22T05:57:28;19.60;99.90
12746;DHT22;6437;53.686;10.030;2023-06-22T05:59:30;17.10;99.90
12746;DHT22;6437;53.686;10.030;2023-06-22T06:01:31;16.20;99.90
12746;DHT22;6437;53.686;10.030;2023-06-22T06:03:35;19.70;99.90
12746;DHT22;6437;53.686;10.030;2023-06-22T06:05:41;19.80;99.90
12746;DHT22;6437;53.686;10.030;2023-06-22T06:07:46;19.80;99.90
12746;DHT22;6437;53.686;10.030;2023-06-22T06:09:48;19.90;99.90
12746;DHT22;6437;53.686;10.030;2023-06-22T06:11:50;19.90;99.90
12746;DHT22;6437;53.686;10.030;2023-06-22T06:13:51;19.90;99.90
12746;DHT22;6437;53.686;10.030;2023-06-22T06:15:53;19.90;99.90
12746;DHT22;6437;53.686;10.030;2023-06-22T06:17:55;20.00;99.90
12746;DHT22;6437;53.686;10.030;2023-06-22T06:19:58;20.00;99.90
12746;DHT22;6437;53.686;10.030;2023-06-22T06:22:00;20.10;99.90
12746;DHT22;6437;53.686;10.030;2023-06-22T06:24:03;20.10;99.90
12746;DHT22;6437;53.686;10.030;2023-06-22T06:26:05;22.50;99.90
12746;DHT22;6437;53.686;10.030;2023-06-22T06:28:07;20.20;99.90
12746;DHT22;6437;53.686;10.030;2023-06-22T06:30:09;23.60;99.90
12746;DHT22;6437;53.686;10.030;2023-06-22T06:32:11;20.40;99.90
12746;DHT22;6437;53.686;10.030;2023-06-22T06:34:13;20.40;99.90
12746;DHT22;6437;53.686;10.030;2023-06-22T06:36:14;19.00;99.90
12746;DHT22;6437;53.686;10.030;2023-06-22T06:38:16;20.40;99.90
12746;DHT22;6437;53.686;10.030;2023-06-22T06:40:19;20.50;99.90
12746;DHT22;6437;53.686;10.030;2023-06-22T06:42:21;20.50;99.90
12746;DHT22;6437;53.686;10.030;2023-06-22T06:44:24;20.50;99.90
12746;DHT22;6437;53.686;10.030;2023-06-22T06:46:26;20.50;99.90
12746;DHT22;6437;53.686;10.030;2023-06-22T06:48:27;20.50;99.90
12746;DHT22;6437;53.686;10.030;2023-06-22T06:50:29;20.50;99.90
12746;DHT22;6437;53.686;10.030;2023-06-22T06:52:31;20.50;99.90
12746;DHT22;6437;53.686;10.030;2023-06-22T06:54:32;20.60;99.90
12746;DHT22;6437;53.686;10.030;2023-06-22T06:56:35;20.60;99.90
12746;DHT22;6437;53.686;10.030;2023-06-22T06:58:38;20.60;99.90
12746;DHT22;6437;53.686;10.030;2023-06-22T07:00:40;20.70;99.90
12746;DHT22;6437;53.686;10.030;2023-06-22T07:02:42;20.70;99.90
12746;DHT22;6437;53.686;10.030;2023-06-22T07:04:44;20.80;99.90
12746;DHT22;6437;53.686;10.030;2023-06-22T07:06:46;23.60;99.90
12746;DHT22;6437;53.686;10.030;2023-06-22T07:08:47;20.80;99.90
12746;DHT22;6437;53.686;10.030;2023-06-22T07:10:50;17.70;99.90
12746;DHT22;6437;53.686;10.030;2023-06-22T07:12:54;20.90;99.90
12746;DHT22;6437;53.686;10.030;2023-06-22T07:15:00;20.90;99.90
12746;DHT22;6437;53.686;10.030;2023-06-22T07:17:02;21.00;99.90
12746;DHT22;6437;53.686;10.030;2023-06-22T07:19:04;21.00;99.90
12746;DHT22;6437;53.686;10.030;2023-06-22T07:21:05;21.00;99.90
12746;DHT22;6437;53.686;10.030;2023-06-22T07:23:07;21.00;99.90
12746;DHT22;6437;53.686;10.030;2023-06-22T07:25:09;21.00;99.90
12746;DHT22;6437;53.686;10.030;2023-06-22T07:27:10;21.00;99.90
12746;DHT22;6437;53.686;10.030;2023-06-22T07:29:14;21.10;99.90
12746;DHT22;6437;53.686;10.030;2023-06-22T07:31:15;21.10;99.90
12746;DHT22;6437;53.686;10.030;2023-06-22T07:33:17;21.20;99.90
12746;DHT22;6437;53.686;10.030;2023-06-22T07:35:18;21.20;99.90
12746;DHT22;6437;53.686;10.030;2023-06-22T07:37:20;21.30;99.90
12746;DHT22;6437;53.686;10.030;2023-06-22T07:39:22;21.30;99.90
12746;DHT22;6437;53.686;10.030;2023-06-22T07:41:26;21.40;99.90
12746;DHT22;6437;53.686;10.030;2023-06-22T07:43:27;21.30;99.90
12746;DHT22;6437;53.686;10.030;2023-06-22T07:45:31;21.40;99.90
12746;DHT22;6437;53.686;10.030;2023-06-22T07:47:35;21.50;99.90
12746;DHT22;6437;53.686;10.030;2023-06-22T07:49:36;21.50;99.90
12746;DHT22;6437;53.686;10.030;2023-06-22T07:51:38;21.60;99.90
12746;DHT22;6437;53.686;10.030;2023-06-22T07:53:40;21.50;99.90
12746;DHT22;6437;53.686;10.030;2023-06-22T07:55:42;21.60;99.90
12746;DHT22;6437;53.686;10.030;2023-06-22T07:57:43;21.60;99.90
12746;DHT22;6437;53.686;10.030;2023-06-22T07:59:45;21.70;99.90
12746;DHT22;6437;53.686;10.030;2023-06-22T08:01:48;21.70;99.90
12746;DHT22;6437;53.686;10.030;2023-06-22T08:03:52;21.80;99.90
12746;DHT22;6437;53.686;10.030;2023-06-22T08:05:54;21.00;99.90
12746;DHT22;6437;53.686;10.030;2023-06-22T08:07:56;21.90;99.90
12746;DHT22;6437;53.686;10.030;2023-06-22T08:09:57;21.90;99.90
12746;DHT22;6437;53.686;10.030;2023-06-22T08:18:33;21.90;99.90
12746;DHT22;6437;53.686;10.030;2023-06-22T08:20:35;22.00;99.90
12746;DHT22;6437;53.686;10.030;2023-06-22T08:22:37;21.90;99.90
12746;DHT22;6437;53.686;10.030;2023-06-22T08:24:38;22.00;99.90
12746;DHT22;6437;53.686;10.030;2023-06-22T08:26:40;22.10;99.90
12746;DHT22;6437;53.686;10.030;2023-06-22T08:28:42;21.90;99.90
12746;DHT22;6437;53.686;10.030;2023-06-22T08:30:43;22.10;99.90
12746;DHT22;6437;53.686;10.030;2023-06-22T08:32:45;22.20;99.90
12746;DHT22;6437;53.686;10.030;2023-06-22T08:34:48;22.20;99.90
12746;DHT22;6437;53.686;10.030;2023-06-22T08:36:50;22.30;99.90
12746;DHT22;6437;53.686;10.030;2023-06-22T08:38:53;22.30;99.90
12746;DHT22;6437;53.686;10.030;2023-06-22T08:40:58;22.30;99.90
12746;DHT22;6437;53.686;10.030;2023-06-22T08:43:00;22.40;99.90
12746;DHT22;6437;53.686;10.030;2023-06-22T08:45:03;22.40;99.90
12746;DHT22;6437;53.686;10.030;2023-06-22T08:47:06;22.50;99.90
12746;DHT22;6437;53.686;10.030;2023-06-22T08:49:07;22.50;99.90
12746;DHT22;6437;53.686;10.030;2023-06-22T08:51:12;22.50;99.90
12746;DHT22;6437;53.686;10.030;2023-06-22T08:53:14;22.50;99.90
12746;DHT22;6437;53.686;10.030;2023-06-22T08:55:16;22.60;99.90
12746;DHT22;6437;53.686;10.030;2023-06-22T08:57:17;22.60;99.90
12746;DHT22;6437;53.686;10.030;2023-06-22T08:59:19;22.70;99.90
12746;DHT22;6437;53.686;10.030;2023-06-22T09:01:21;22.70;99.90
12746;DHT22;6437;53.686;10.030;2023-06-22T09:03:23;22.80;99.90
12746;DHT22;6437;53.686;10.030;2023-06-22T09:05:26;22.80;99.90
12746;DHT22;6437;53.686;10.030;2023-06-22T09:07:30;22.80;99.90
12746;DHT22;6437;53.686;10.030;2023-06-22T09:09:31;22.90;99.90
12746;DHT22;6437;53.686;10.030;2023-06-22T09:11:33;22.90;99.90
12746;DHT22;6437;53.686;10.030;2023-06-22T09:13:35;22.90;99.90
12746;DHT22;6437;53.686;10.030;2023-06-22T09:15:37;23.00;99.90
12746;DHT22;6437;53.686;10.030;2023-06-22T09:17:40;23.00;99.90
12746;DHT22;6437;53.686;10.030;2023-06-22T09:19:42;23.10;99.90
12746;DHT22;6437;53.686;10.030;2023-06-22T09:21:44;23.10;99.90
12746;DHT22;6437;53.686;10.030;2023-06-22T09:25:57;23.20;99.90
12746;DHT22;6437;53.686;10.030;2023-06-22T09:27:59;23.20;99.90
12746;DHT22;6437;53.686;10.030;2023-06-22T09:30:01;23.30;99.90
12746;DHT22;6437;53.686;10.030;2023-06-22T09:32:05;23.30;99.90
12746;DHT22;6437;53.686;10.030;2023-06-22T09:34:06;23.30;99.90
12746;DHT22;6437;53.686;10.030;2023-06-22T09:36:08;23.40;99.90
12746;DHT22;6437;53.686;10.030;2023-06-22T09:38:10;23.40;99.90
12746;DHT22;6437;53.686;10.030;2023-06-22T09:40:12;23.40;99.90
12746;DHT22;6437;53.686;10.030;2023-06-22T09:42:18;23.40;99.90
12746;DHT22;6437;53.686;10.030;2023-06-22T09:44:21;23.50;99.90
12746;DHT22;6437;53.686;10.030;2023-06-22T09:46:23;23.50;99.90
12746;DHT22;6437;53.686;10.030;2023-06-22T09:48:25;23.60;99.90
12746;DHT22;6437;53.686;10.030;2023-06-22T09:50:27;23.60;99.90
12746;DHT22;6437;53.686;10.030;2023-06-22T09:52:29;23.70;99.90
12746;DHT22;6437;53.686;10.030;2023-06-22T09:54:30;23.70;99.90
12746;DHT22;6437;53.686;10.030;2023-06-22T09:56:32;23.70;99.90
12746;DHT22;6437;53.686;10.030;2023-06-22T09:58:35;23.70;99.90
12746;DHT22;6437;53.686;10.030;2023-06-22T10:00:37;23.70;99.90
12746;DHT22;6437;53.686;10.030;2023-06-22T10:02:39;23.90;99.90
12746;DHT22;6437;53.686;10.030;2023-06-22T10:04:41;23.90;99.90
12746;DHT22;6437;53.686;10.030;2023-06-22T10:06:43;23.90;99.90
12746;DHT22;6437;53.686;10.030;2023-06-22T10:08:44;24.00;99.90
12746;DHT22;6437;53.686;10.030;2023-06-22T10:10:46;24.00;99.90
12746;DHT22;6437;53.686;10.030;2023-06-22T10:12:54;24.00;99.90
12746;DHT22;6437;53.686;10.030;2023-06-22T10:14:58;24.00;99.90
12746;DHT22;6437;53.686;10.030;2023-06-22T10:17:02;24.00;99.90
12746;DHT22;6437;53.686;10.030;2023-06-22T10:19:04;24.10;99.90
12746;DHT22;6437;53.686;10.030;2023-06-22T10:21:05;24.10;99.90
12746;DHT22;6437;53.686;10.030;2023-06-22T10:23:07;24.10;99.90
12746;DHT22;6437;53.686;10.030;2023-06-22T10:25:10;24.10;99.90
12746;DHT22;6437;53.686;10.030;2023-06-22T10:27:11;24.20;99.90
12746;DHT22;6437;53.686;10.030;2023-06-22T10:29:14;24.20;99.90
12746;DHT22;6437;53.686;10.030;2023-06-22T10:31:17;24.20;99.90
12746;DHT22;6437;53.686;10.030;2023-06-22T10:33:18;24.30;99.90
12746;DHT22;6437;53.686;10.030;2023-06-22T10:35:20;24.30;99.90
12746;DHT22;6437;53.686;10.030;2023-06-22T10:37:23;24.30;99.90
12746;DHT22;6437;53.686;10.030;2023-06-22T10:39:24;24.40;99.90
12746;DHT22;6437;53.686;10.030;2023-06-22T10:41:26;24.50;99.90
12746;DHT22;6437;53.686;10.030;2023-06-22T10:43:30;24.50;99.90
12746;DHT22;6437;53.686;10.030;2023-06-22T10:45:32;24.50;99.90
12746;DHT22;6437;53.686;10.030;2023-06-22T10:47:35;24.60;99.90
12746;DHT22;6437;53.686;10.030;2023-06-22T10:49:37;24.70;99.90
12746;DHT22;6437;53.686;10.030;2023-06-22T10:51:39;24.60;99.90
12746;DHT22;6437;53.686;10.030;2023-06-22T10:53:42;24.70;99.90
12746;DHT22;6437;53.686;10.030;2023-06-22T10:55:44;24.70;99.90
12746;DHT22;6437;53.686;10.030;2023-06-22T10:57:45;24.80;99.90
12746;DHT22;6437;53.686;10.030;2023-06-22T10:59:47;24.80;99.90
12746;DHT22;6437;53.686;10.030;2023-06-22T11:01:49;24.80;99.90
12746;DHT22;6437;53.686;10.030;2023-06-22T11:03:52;24.80;99.90
12746;DHT22;6437;53.686;10.030;2023-06-22T11:05:54;24.90;99.90
12746;DHT22;6437;53.686;10.030;2023-06-22T11:07:56;24.90;99.90
12746;DHT22;6437;53.686;10.030;2023-06-22T11:09:58;24.90;99.90
12746;DHT22;6437;53.686;10.030;2023-06-22T11:11:59;25.00;99.90
12746;DHT22;6437;53.686;10.030;2023-06-22T11:14:01;25.00;99.90
12746;DHT22;6437;53.686;10.030;2023-06-22T11:16:03;25.00;99.90
12746;DHT22;6437;53.686;10.030;2023-06-22T11:18:05;25.00;99.90
12746;DHT22;6437;53.686;10.030;2023-06-22T11:22:19;25.10;99.90
12746;DHT22;6437;53.686;10.030;2023-06-22T11:24:21;25.20;99.90
12746;DHT22;6437;53.686;10.030;2023-06-22T11:26:23;25.20;99.90
12746;DHT22;6437;53.686;10.030;2023-06-22T11:28:25;25.30;99.90
12746;DHT22;6437;53.686;10.030;2023-06-22T11:30:28;25.30;99.90
12746;DHT22;6437;53.686;10.030;2023-06-22T11:32:29;25.40;99.90
12746;DHT22;6437;53.686;10.030;2023-06-22T11:34:31;25.40;99.90
12746;DHT22;6437;53.686;10.030;2023-06-22T11:36:33;25.50;99.90
12746;DHT22;6437;53.686;10.030;2023-06-22T11:38:37;25.50;99.90
12746;DHT22;6437;53.686;10.030;2023-06-22T11:40:39;25.60;99.90
12746;DHT22;6437;53.686;10.030;2023-06-22T11:42:41;25.50;99.90
12746;DHT22;6437;53.686;10.030;2023-06-22T11:44:43;25.60;99.90
12746;DHT22;6437;53.686;10.030;2023-06-22T11:46:45;25.60;99.90
12746;DHT22;6437;53.686;10.030;2023-06-22T11:48:48;25.70;99.90
12746;DHT22;6437;53.686;10.030;2023-06-22T11:50:49;25.70;99.90
12746;DHT22;6437;53.686;10.030;2023-06-22T11:52:51;25.70;99.90
12746;DHT22;6437;53.686;10.030;2023-06-22T11:54:55;25.70;99.90
12746;DHT22;6437;53.686;10.030;2023-06-22T11:56:57;25.70;99.90
12746;DHT22;6437;53.686;10.030;2023-06-22T11:58:59;25.80;99.90
12746;DHT22;6437;53.686;10.030;2023-06-22T12:01:00;25.80;99.90
12746;DHT22;6437;53.686;10.030;2023-06-22T12:03:02;25.80;99.90
12746;DHT22;6437;53.686;10.030;2023-06-22T12:05:05;25.80;99.90
12746;DHT22;6437;53.686;10.030;2023-06-22T12:07:08;25.90;99.90
12746;DHT22;6437;53.686;10.030;2023-06-22T12:09:10;25.90;99.90
12746;DHT22;6437;53.686;10.030;2023-06-22T12:11:15;25.90;99.90
12746;DHT22;6437;53.686;10.030;2023-06-22T12:13:17;25.90;99.90
12746;DHT22;6437;53.686;10.030;2023-06-22T12:15:19;25.90;99.90
12746;DHT22;6437;53.686;10.030;2023-06-22T12:17:20;25.90;99.90
12746;DHT22;6437;53.686;10.030;2023-06-22T12:19:22;25.80;99.90
12746;DHT22;6437;53.686;10.030;2023-06-22T12:21:24;25.90;99.90
12746;DHT22;6437;53.686;10.030;2023-06-22T12:23:25;25.90;99.90
12746;DHT22;6437;53.686;10.030;2023-06-22T12:25:27;25.80;99.90
12746;DHT22;6437;53.686;10.030;2023-06-22T12:27:30;25.90;99.90
12746;DHT22;6437;53.686;10.030;2023-06-22T12:29:32;25.90;99.90
12746;DHT22;6437;53.686;10.030;2023-06-22T12:31:35;25.90;99.90
12746;DHT22;6437;53.686;10.030;2023-06-22T12:33:37;25.90;99.90
12746;DHT22;6437;53.686;10.030;2023-06-22T12:35:39;25.80;99.90
12746;DHT22;6437;53.686;10.030;2023-06-22T12:37:40;25.90;99.90
12746;DHT22;6437;53.686;10.030;2023-06-22T12:39:43;25.90;99.90
12746;DHT22;6437;53.686;10.030;2023-06-22T12:41:45;25.90;99.90
12746;DHT22;6437;53.686;10.030;2023-06-22T12:43:48;25.90;99.90
12746;DHT22;6437;53.686;10.030;2023-06-22T12:45:50;25.90;99.90
12746;DHT22;6437;53.686;10.030;2023-06-22T12:47:51;25.90;99.90
12746;DHT22;6437;53.686;10.030;2023-06-22T12:49:54;25.90;99.90
12746;DHT22;6437;53.686;10.030;2023-06-22T12:51:56;25.90;99.90
12746;DHT22;6437;53.686;10.030;2023-06-22T12:53:58;25.90;99.90
12746;DHT22;6437;53.686;10.030;2023-06-22T12:56:00;26.00;99.90
12746;DHT22;6437;53.686;10.030;2023-06-22T12:58:01;26.00;99.90
12746;DHT22;6437;53.686;10.030;2023-06-22T13:00:06;26.00;99.90
12746;DHT22;6437;53.686;10.030;2023-06-22T13:02:10;26.00;99.90
12746;DHT22;6437;53.686;10.030;2023-06-22T13:04:12;26.00;99.90